Time;durP1;ratioP1;P1;durP2;ratioP2;P2;SDS_P1;SDS_P2;PMS_P1;PMS_P2;Temp;Humidity;BMP_temperature;BMP_pressure;BME280_temperature;BME280_humidity;BME280_pressure;Samples;Min_cycle;Max_cycle;Signal;HPM_P1;HPM_P2
2022/08/09 00:02:29;;;;;;;7.37;6.87;;;;;;;14.65;100.00;102779.63;5011271;28;21070;-48
2022/08/09 00:04:57;;;;;;;7.27;6.67;;;;;;;14.63;100.00;102789.72;5011399;28;20491;-43
2022/08/09 00:07:44;;;;;;;6.60;6.10;;;;;;;14.54;100.00;102780.00;5008188;28;20480;-47
2022/08/09 00:10:12;;;;;;;7.30;6.70;;;;;;;14.52;100.00;102783.84;4992041;28;20434;-43
2022/08/09 00:12:47;;;;;;;7.70;7.00;;;;;;;14.51;100.00;102782.19;4994543;28;20833;-43
2022/08/09 00:15:19;;;;;;;7.07;6.43;;;;;;;14.50;100.00;102786.72;4995356;28;20478;-43
2022/08/09 00:18:09;;;;;;;7.03;6.60;;;;;;;14.46;100.00;102782.69;4994992;28;20462;-47
2022/08/09 00:20:38;;;;;;;8.53;6.67;;;;;;;14.44;100.00;102787.41;4995477;28;20858;-44
2022/08/09 00:23:16;;;;;;;7.50;6.93;;;;;;;14.39;100.00;102781.72;4994885;28;20477;-45
2022/08/09 00:26:04;;;;;;;8.27;7.50;;;;;;;14.32;100.00;102791.44;4995151;28;20450;-43
2022/08/09 00:28:32;;;;;;;7.00;6.50;;;;;;;14.30;100.00;102794.31;4994696;28;20478;-44
2022/08/09 00:31:01;;;;;;;7.23;6.83;;;;;;;14.26;100.00;102784.91;4995087;28;20426;-44
2022/08/09 00:33:51;;;;;;;7.50;7.00;;;;;;;14.23;100.00;102787.09;4997488;28;20425;-43
2022/08/09 00:36:20;;;;;;;9.73;6.93;;;;;;;14.19;100.00;102791.13;5006320;28;20477;-45
2022/08/09 00:38:47;;;;;;;7.07;6.47;;;;;;;14.17;100.00;102788.63;5014078;28;20465;-44
2022/08/09 00:41:19;;;;;;;7.00;6.60;;;;;;;14.16;100.00;102791.47;5014670;28;20863;-45
2022/08/09 00:44:07;;;;;;;7.47;6.87;;;;;;;14.16;100.00;102796.81;5014574;28;20441;-44
2022/08/09 00:46:54;;;;;;;9.23;7.17;;;;;;;14.14;100.00;102788.97;5014283;28;20469;-45
2022/08/09 00:49:33;;;;;;;7.30;6.37;;;;;;;14.11;100.00;102791.13;5014148;28;20465;-47
2022/08/09 00:52:04;;;;;;;7.43;6.93;;;;;;;14.09;100.00;102798.53;5014170;28;20464;-47
2022/08/09 00:54:42;;;;;;;6.80;6.40;;;;;;;14.06;100.00;102796.19;5014394;28;20465;-42
2022/08/09 00:57:11;;;;;;;7.97;6.50;;;;;;;14.06;100.00;102785.47;5014004;28;20555;-43
2022/08/09 00:59:51;;;;;;;6.77;6.37;;;;;;;14.05;100.00;102794.50;5014053;28;20460;-44
2022/08/09 01:02:21;;;;;;;6.73;6.23;;;;;;;14.05;100.00;102811.44;5013978;28;20433;-45
2022/08/09 01:04:57;;;;;;;7.60;6.40;;;;;;;14.06;100.00;102802.41;5014374;28;20417;-45
2022/08/09 01:07:38;;;;;;;7.03;6.20;;;;;;;14.06;100.00;102801.56;5013298;28;20445;-43
2022/08/09 01:10:37;;;;;;;7.73;6.97;;;;;;;14.02;100.00;102805.56;5014011;28;20440;-48
2022/08/09 01:13:13;;;;;;;6.87;6.37;;;;;;;13.97;100.00;102800.72;5013573;28;20854;-43
2022/08/09 01:15:46;;;;;;;7.10;5.80;;;;;;;13.98;100.00;102806.94;5013598;28;20473;-44
2022/08/09 01:18:21;;;;;;;7.43;7.03;;;;;;;13.97;100.00;102808.78;5013384;28;20827;-44
2022/08/09 01:21:19;;;;;;;6.57;6.17;;;;;;;13.95;100.00;102810.75;5013783;28;20433;-43
2022/08/09 01:23:59;;;;;;;6.63;6.23;;;;;;;13.94;100.00;102811.78;5013214;28;20524;-45
2022/08/09 01:26:55;;;;;;;6.87;6.37;;;;;;;13.93;100.00;102817.31;5013474;28;20453;-42
2022/08/09 01:29:30;;;;;;;6.90;6.40;;;;;;;13.90;100.00;102818.50;5013075;28;20465;-44
2022/08/09 01:32:19;;;;;;;7.17;6.77;;;;;;;13.92;100.00;102815.66;5013288;28;20799;-46
2022/08/09 01:35:03;;;;;;;7.27;6.87;;;;;;;13.92;100.00;102819.16;5012610;28;20941;-47
2022/08/09 01:37:46;;;;;;;7.70;7.10;;;;;;;13.93;100.00;102818.16;5012944;28;20449;-48
2022/08/09 01:40:35;;;;;;;7.17;6.67;;;;;;;13.91;100.00;102813.97;5013504;28;20436;-45
2022/08/09 01:43:06;;;;;;;7.20;6.60;;;;;;;13.89;100.00;102813.31;5012943;28;20437;-45
2022/08/09 01:45:35;;;;;;;7.10;6.70;;;;;;;13.88;100.00;102815.16;5013088;28;20956;-47
2022/08/09 01:48:16;;;;;;;6.90;6.30;;;;;;;13.88;100.00;102822.34;5012815;28;20928;-44
2022/08/09 01:50:44;;;;;;;6.90;6.43;;;;;;;13.87;100.00;102813.47;5013208;28;20460;-45
2022/08/09 01:53:16;;;;;;;7.00;6.53;;;;;;;13.82;100.00;102816.66;5012863;28;20441;-45
2022/08/09 01:55:47;;;;;;;7.20;6.70;;;;;;;13.83;100.00;102814.78;5013078;28;20505;-46
2022/08/09 01:58:17;;;;;;;6.40;6.00;;;;;;;13.83;100.00;102821.00;5012649;28;20468;-44
2022/08/09 02:00:53;;;;;;;7.23;6.53;;;;;;;13.82;100.00;102816.66;5013149;28;20460;-46
2022/08/09 02:03:22;;;;;;;7.37;6.77;;;;;;;13.80;100.00;102823.16;5012996;28;20441;-44
2022/08/09 02:05:53;;;;;;;6.80;6.43;;;;;;;13.76;100.00;102816.50;5013063;28;20436;-45
2022/08/09 02:08:36;;;;;;;6.60;6.20;;;;;;;13.73;100.00;102814.13;5012778;28;20461;-45
2022/08/09 02:11:26;;;;;;;6.50;6.10;;;;;;;13.68;100.00;102814.63;5012978;28;20434;-45
2022/08/09 02:14:14;;;;;;;6.87;6.37;;;;;;;13.66;100.00;102813.97;5012544;28;20447;-46
2022/08/09 02:16:54;;;;;;;7.37;6.83;;;;;;;13.65;100.00;102817.63;5012713;28;20480;-45
2022/08/09 02:19:42;;;;;;;7.03;6.53;;;;;;;13.65;100.00;102823.00;5012316;28;20461;-45
2022/08/09 02:22:20;;;;;;;7.40;6.80;;;;;;;13.62;100.00;102820.66;5012403;28;20439;-46
2022/08/09 02:25:08;;;;;;;6.93;6.50;;;;;;;13.59;100.00;102820.97;5012450;28;20440;-44
2022/08/09 02:27:48;;;;;;;7.70;7.20;;;;;;;13.56;100.00;102821.31;5012175;28;20455;-44
2022/08/09 02:30:39;;;;;;;7.47;6.90;;;;;;;13.53;100.00;102824.31;5012615;28;20958;-44
2022/08/09 02:33:10;;;;;;;7.27;6.87;;;;;;;13.50;100.00;102824.66;5012248;28;20468;-43
2022/08/09 02:35:42;;;;;;;7.50;6.63;;;;;;;13.50;100.00;102830.00;5010732;28;20433;-44
2022/08/09 02:38:34;;;;;;;7.57;6.97;;;;;;;13.49;100.00;102827.50;5012219;28;20457;-46
2022/08/09 02:41:07;;;;;;;8.50;7.33;;;;;;;13.47;100.00;102835.72;5012396;28;20433;-45
2022/08/09 02:43:37;;;;;;;7.20;6.60;;;;;;;13.46;100.00;102833.22;5012056;28;20479;-44
2022/08/09 02:46:26;;;;;;;7.17;6.57;;;;;;;13.41;100.00;102833.69;5012306;28;20467;-47
2022/08/09 02:48:58;;;;;;;6.97;6.43;;;;;;;13.42;100.00;102839.88;5011786;28;20492;-45
2022/08/09 02:51:27;;;;;;;9.33;7.30;;;;;;;13.41;100.00;102841.72;5012323;28;20930;-46
2022/08/09 02:54:10;;;;;;;7.60;7.10;;;;;;;13.41;100.00;102827.50;5011770;28;20474;-46
2022/08/09 02:56:43;;;;;;;7.30;6.80;;;;;;;13.41;100.00;102839.03;5012194;28;20477;-42
2022/08/09 02:59:20;;;;;;;7.43;6.93;;;;;;;13.38;100.00;102842.03;5011461;28;20515;-42
2022/08/09 03:02:06;;;;;;;8.83;8.17;;;;;;;13.39;100.00;102837.53;5012028;28;20437;-41
2022/08/09 03:04:45;;;;;;;8.20;7.50;;;;;;;13.38;100.00;102836.69;5012147;28;20433;-44
2022/08/09 03:07:18;;;;;;;9.53;7.60;;;;;;;13.38;100.00;102835.88;5012306;28;20814;-44
2022/08/09 03:09:49;;;;;;;12.03;8.97;;;;;;;13.38;100.00;102838.56;5011802;28;20812;-44
2022/08/09 03:12:24;;;;;;;9.17;8.37;;;;;;;13.37;100.00;102828.81;5012015;28;20833;-47
2022/08/09 03:14:53;;;;;;;8.70;8.00;;;;;;;13.38;100.00;102830.50;5011949;28;20465;-44
2022/08/09 03:17:24;;;;;;;7.93;7.33;;;;;;;13.38;100.00;102835.88;5012032;28;20477;-43
2022/08/09 03:19:57;;;;;;;7.63;7.03;;;;;;;13.39;100.00;102838.38;5031833;28;20505;-47
2022/08/09 03:22:35;;;;;;;8.83;7.20;;;;;;;13.38;100.00;102834.00;5031564;28;20527;-46
2022/08/09 03:25:11;;;;;;;8.90;8.30;;;;;;;13.41;100.00;102839.03;5031584;28;20515;-44
2022/08/09 03:28:01;;;;;;;8.63;7.93;;;;;;;13.42;100.00;102837.22;5031225;28;20467;-43
2022/08/09 03:30:29;;;;;;;9.27;8.60;;;;;;;13.40;100.00;102840.06;5031911;28;20436;-44
2022/08/09 03:33:07;;;;;;;8.77;7.83;;;;;;;13.41;100.00;102832.88;5031610;28;20797;-44
2022/08/09 03:35:47;;;;;;;8.80;7.90;;;;;;;13.41;100.00;102833.69;5030711;28;20427;-45
2022/08/09 03:38:34;;;;;;;8.83;8.23;;;;;;;13.40;100.00;102841.91;5031071;28;20869;-42
2022/08/09 03:41:08;;;;;;;8.83;8.23;;;;;;;13.39;100.00;102826.81;5031974;28;20841;-43
2022/08/09 03:43:41;;;;;;;10.73;8.40;;;;;;;13.41;100.00;102828.31;5031529;28;20432;-44
2022/08/09 03:46:18;;;;;;;10.43;9.10;;;;;;;13.42;100.00;102829.16;5032700;28;20554;-43
2022/08/09 03:48:59;;;;;;;9.67;9.07;;;;;;;13.43;100.00;102822.81;5033215;28;20543;-45
2022/08/09 03:51:36;;;;;;;8.73;8.03;;;;;;;13.41;100.00;102833.69;5033851;28;20520;-42
2022/08/09 03:54:25;;;;;;;9.50;8.70;;;;;;;13.44;100.00;102830.66;5033135;28;20431;-43
2022/08/09 03:56:59;;;;;;;10.43;9.57;;;;;;;13.48;100.00;102837.38;5034741;28;20518;-43
2022/08/09 03:59:27;;;;;;;8.90;8.30;;;;;;;13.48;100.00;102844.59;5033591;28;20474;-43
2022/08/09 04:02:15;;;;;;;9.70;9.00;;;;;;;13.47;100.00;102842.94;5034836;28;20432;-43
2022/08/09 04:04:55;;;;;;;9.23;8.47;;;;;;;13.54;100.00;102860.84;5034784;28;20447;-46
2022/08/09 04:07:26;;;;;;;10.47;9.53;;;;;;;13.60;100.00;102845.94;5034441;28;20981;-42
2022/08/09 04:10:13;;;;;;;10.67;9.50;;;;;;;13.66;100.00;102846.13;5035176;28;20829;-44
2022/08/09 04:12:46;;;;;;;9.33;8.63;;;;;;;13.69;100.00;102847.66;5035044;28;20432;-44
2022/08/09 04:15:17;;;;;;;8.97;8.37;;;;;;;13.74;100.00;102853.34;5034705;28;20439;-44
2022/08/09 04:18:06;;;;;;;9.20;8.40;;;;;;;13.82;100.00;102848.00;5034444;28;20456;-48
2022/08/09 04:20:35;;;;;;;10.37;9.47;;;;;;;13.88;100.00;102851.84;5034670;28;20431;-44
2022/08/09 04:23:02;;;;;;;10.67;9.67;;;;;;;13.95;100.00;102847.50;5034228;28;20945;-45
2022/08/09 04:25:43;;;;;;;8.23;7.47;;;;;;;14.02;100.00;102856.53;5034528;28;20872;-44
2022/08/09 04:28:16;;;;;;;8.90;8.27;;;;;;;14.05;100.00;102858.88;5033910;28;20460;-44
2022/08/09 04:31:00;;;;;;;9.17;8.47;;;;;;;14.08;100.00;102855.88;5034639;28;20432;-44
2022/08/09 04:33:37;;;;;;;8.60;8.00;;;;;;;14.14;100.00;102858.72;5033336;28;20475;-43
2022/08/09 04:36:22;;;;;;;9.40;8.80;;;;;;;14.18;100.00;102868.13;5034144;28;20459;-43
2022/08/09 04:38:50;;;;;;;9.40;8.80;;;;;;;14.16;100.00;102871.97;5033845;28;20492;-46
2022/08/09 04:41:18;;;;;;;9.37;8.73;;;;;;;14.15;100.00;102867.63;5034674;28;20432;-44
2022/08/09 04:43:50;;;;;;;9.27;8.67;;;;;;;14.18;100.00;102865.44;5034215;28;20440;-44
2022/08/09 04:46:36;;;;;;;9.90;8.90;;;;;;;14.24;100.00;102874.66;5033888;28;20560;-44
2022/08/09 04:49:24;;;;;;;9.80;9.00;;;;;;;14.30;100.00;102866.78;5033820;28;20527;-44
2022/08/09 04:52:13;;;;;;;15.83;9.83;;;;;;;14.54;100.00;102882.03;5034303;28;20440;-44
2022/08/09 04:54:50;;;;;;;9.03;8.03;;;;;;;14.73;100.00;102876.25;5034351;28;20809;-43
2022/08/09 04:57:18;;;;;;;8.50;7.90;;;;;;;14.86;100.00;102879.25;5033405;28;20476;-45
2022/08/09 04:59:50;;;;;;;8.77;8.23;;;;;;;15.26;100.00;102880.13;5014217;28;20483;-44
2022/08/09 05:02:18;;;;;;;8.47;7.77;;;;;;;16.13;100.00;102871.63;5014135;28;20447;-47
2022/08/09 05:04:46;;;;;;;8.60;8.00;;;;;;;17.41;100.00;102890.06;5014148;28;20876;-43
2022/08/09 05:07:23;;;;;;;7.73;7.23;;;;;;;18.42;89.39;102892.56;5013752;28;20902;-48
2022/08/09 05:09:54;;;;;;;7.50;7.00;;;;;;;19.52;87.76;102893.41;5013896;28;20548;-46
2022/08/09 05:12:22;;;;;;;7.60;7.10;;;;;;;20.52;83.04;102892.50;5013636;28;20437;-48
2022/08/09 05:14:50;;;;;;;6.67;6.37;;;;;;;21.46;79.41;102899.94;5013751;28;20440;-49
2022/08/09 05:17:17;;;;;;;6.37;6.07;;;;;;;22.15;68.80;102895.56;5013560;28;20869;-46
2022/08/09 05:20:06;;;;;;;7.00;6.60;;;;;;;22.70;66.38;102900.09;5013253;28;20453;-46
2022/08/09 05:22:35;;;;;;;6.20;5.80;;;;;;;23.46;64.60;102896.91;5013424;28;20439;-48
2022/08/09 05:25:23;;;;;;;6.30;5.83;;;;;;;24.05;61.56;102885.13;5013435;28;20440;-45
2022/08/09 05:27:52;;;;;;;6.37;5.97;;;;;;;24.49;59.70;102892.75;5016837;28;20470;-48
2022/08/09 05:30:22;;;;;;;7.23;6.53;;;;;;;24.73;57.50;102894.41;5033049;28;20524;-47
2022/08/09 05:32:50;;;;;;;6.60;6.00;;;;;;;24.78;53.02;102896.44;5033157;28;20775;-45
2022/08/09 05:35:19;;;;;;;5.63;5.40;;;;;;;24.81;55.39;102895.16;5032088;28;20467;-46
2022/08/09 05:37:50;;;;;;;6.70;6.20;;;;;;;25.08;48.81;102890.84;5032333;28;20459;-47
2022/08/09 05:40:18;;;;;;;5.67;5.47;;;;;;;25.25;53.58;102883.53;5033024;28;20458;-44
2022/08/09 05:42:48;;;;;;;6.13;5.83;;;;;;;25.41;51.42;102890.97;5032820;28;20431;-44
2022/08/09 05:45:16;;;;;;;5.77;5.37;;;;;;;26.18;50.95;102892.13;5033093;28;20949;-45
2022/08/09 05:47:44;;;;;;;5.90;5.50;;;;;;;26.51;52.18;102887.72;5032399;28;20463;-46
2022/08/09 05:50:22;;;;;;;6.23;5.83;;;;;;;25.96;45.67;102893.91;5032986;28;20466;-44
2022/08/09 05:53:11;;;;;;;6.23;5.83;;;;;;;26.43;48.46;102893.63;5032826;28;20459;-42
2022/08/09 05:55:59;;;;;;;4.83;4.53;;;;;;;26.82;48.48;102890.63;5032718;28;20471;-46
2022/08/09 05:58:28;;;;;;;5.00;4.80;;;;;;;26.52;50.22;102887.47;5032421;28;20495;-44
2022/08/09 06:00:55;;;;;;;5.33;5.13;;;;;;;26.05;45.64;102895.16;5033165;28;20432;-46
2022/08/09 06:03:24;;;;;;;5.70;5.40;;;;;;;26.22;47.61;102900.69;5032350;28;20457;-45
2022/08/09 06:06:10;;;;;;;4.90;4.50;;;;;;;26.53;47.48;102886.38;5032558;28;20458;-46
2022/08/09 06:08:39;;;;;;;5.23;4.93;;;;;;;26.43;45.73;102888.16;5031503;28;20459;-50
2022/08/09 06:11:09;;;;;;;5.37;4.97;;;;;;;26.74;47.58;102896.53;5032073;28;20428;-45
2022/08/09 06:13:44;;;;;;;4.60;4.40;;;;;;;26.60;47.68;102897.97;5032157;28;21014;-48
2022/08/09 06:16:14;;;;;;;4.57;4.30;;;;;;;26.83;46.50;102894.22;5032096;28;20448;-47
2022/08/09 06:18:42;;;;;;;4.60;4.40;;;;;;;26.51;43.60;102896.75;5031841;28;20557;-44
2022/08/09 06:21:10;;;;;;;4.30;4.07;;;;;;;26.74;45.30;102896.53;5032369;28;20438;-47
2022/08/09 06:23:39;;;;;;;4.63;4.03;;;;;;;26.79;43.67;102901.25;5031980;28;20443;-45
2022/08/09 06:26:26;;;;;;;4.00;3.70;;;;;;;27.08;45.50;102905.50;5031933;28;20468;-42
2022/08/09 06:28:56;;;;;;;4.83;4.63;;;;;;;27.19;45.27;102909.19;5031753;28;20467;-45
2022/08/09 06:31:28;;;;;;;4.60;4.20;;;;;;;27.47;44.36;102909.00;5032061;28;20925;-47
2022/08/09 06:33:58;;;;;;;4.13;3.93;;;;;;;27.58;44.00;102910.78;5030968;28;20436;-44
2022/08/09 06:36:25;;;;;;;4.53;4.23;;;;;;;27.89;41.77;102904.50;5031813;28;20462;-46
2022/08/09 06:38:58;;;;;;;3.10;3.00;;;;;;;28.21;44.22;102910.00;5031354;28;20845;-45
2022/08/09 06:41:29;;;;;;;3.23;3.03;;;;;;;28.34;42.57;102906.84;5032091;28;20459;-43
2022/08/09 06:44:16;;;;;;;3.30;3.10;;;;;;;28.44;42.43;102906.06;5031791;28;20965;-48
2022/08/09 06:46:46;;;;;;;3.50;3.20;;;;;;;28.72;41.31;102919.47;5031874;28;20543;-45
2022/08/09 06:49:16;;;;;;;3.13;2.87;;;;;;;28.69;38.63;102917.25;5031386;28;20554;-45
2022/08/09 06:52:01;;;;;;;3.43;3.20;;;;;;;28.68;41.33;102918.31;5031939;28;20208;-47
2022/08/09 06:54:31;;;;;;;3.00;2.80;;;;;;;28.85;39.87;102924.44;5031854;28;20575;-43
2022/08/09 06:56:58;;;;;;;3.30;3.10;;;;;;;29.08;39.13;102921.28;5031720;28;20307;-44
2022/08/09 06:59:26;;;;;;;3.50;3.40;;;;;;;29.39;38.86;102914.00;5031163;28;20228;-47
2022/08/09 07:02:13;;;;;;;3.50;3.30;;;;;;;28.33;38.35;102916.16;5031329;28;20674;-46
2022/08/09 07:04:43;;;;;;;3.57;3.27;;;;;;;27.42;40.66;102930.84;5031890;28;20598;-46
2022/08/09 07:07:11;;;;;;;3.30;3.20;;;;;;;26.93;42.16;102936.25;5031685;28;20217;-44
2022/08/09 07:10:00;;;;;;;3.20;3.00;;;;;;;26.15;44.12;102939.13;5031471;28;20459;-44
2022/08/09 07:12:48;;;;;;;3.37;3.27;;;;;;;25.56;44.53;102940.47;5031595;28;20446;-47
2022/08/09 07:15:24;;;;;;;4.20;4.00;;;;;;;24.18;48.26;102951.22;5031765;28;20435;-44
2022/08/09 07:18:12;;;;;;;4.00;3.77;;;;;;;23.75;49.91;102955.16;5031194;28;20470;-49
2022/08/09 07:20:41;;;;;;;4.60;4.40;;;;;;;23.32;51.45;102949.84;5032610;28;20470;-46
2022/08/09 07:23:12;;;;;;;4.17;3.97;;;;;;;23.29;51.37;102956.59;5035414;28;20481;-43
2022/08/09 07:25:47;;;;;;;3.77;3.60;;;;;;;23.44;52.14;102956.22;5035514;28;20518;-44
2022/08/09 07:28:27;;;;;;;4.00;3.80;;;;;;;23.50;51.57;102960.75;5035371;28;20567;-42
2022/08/09 07:30:55;;;;;;;4.77;4.47;;;;;;;23.50;51.92;102958.88;5035495;28;20431;-41
2022/08/09 07:33:23;;;;;;;5.20;4.90;;;;;;;23.47;52.97;102964.78;5035550;28;20788;-48
2022/08/09 07:35:51;;;;;;;6.03;5.60;;;;;;;23.07;52.40;102958.09;5026070;28;20932;-45
2022/08/09 07:38:21;;;;;;;6.13;5.83;;;;;;;22.67;55.00;102957.66;5034996;28;20486;-45
2022/08/09 07:40:51;;;;;;;5.50;5.10;;;;;;;23.00;54.98;102960.88;5035230;28;20431;-44
2022/08/09 07:43:39;;;;;;;5.53;5.10;;;;;;;23.16;53.86;102964.91;5034735;28;20440;-46
2022/08/09 07:46:16;;;;;;;5.33;4.97;;;;;;;22.82;54.91;102955.41;5035105;28;20463;-44
2022/08/09 07:48:46;;;;;;;5.30;4.40;;;;;;;23.04;54.23;102962.09;5034531;28;20478;-45
2022/08/09 07:51:26;;;;;;;5.00;4.50;;;;;;;23.17;54.48;102963.84;5035124;28;20440;-47
2022/08/09 07:54:14;;;;;;;4.20;4.00;;;;;;;23.45;52.97;102953.25;5034889;28;20451;-46
2022/08/09 07:56:55;;;;;;;3.50;3.40;;;;;;;23.39;53.40;102958.78;5035052;28;20458;-47
2022/08/09 07:59:25;;;;;;;3.67;3.57;;;;;;;23.28;53.83;102963.09;5034453;28;20891;-47
2022/08/09 08:02:12;;;;;;;3.60;3.50;;;;;;;23.04;53.43;102961.25;5035221;28;20951;-43
2022/08/09 08:04:46;;;;;;;3.30;3.20;;;;;;;22.69;55.53;102954.72;5035095;28;20443;-46
2022/08/09 08:07:15;;;;;;;3.07;2.87;;;;;;;22.71;54.30;102958.88;5034570;28;21023;-44
2022/08/09 08:10:05;;;;;;;3.30;3.10;;;;;;;22.60;55.37;102957.69;5034527;28;20451;-45
2022/08/09 08:12:42;;;;;;;3.63;3.40;;;;;;;22.58;55.19;102962.50;5034356;28;20795;-45
2022/08/09 08:15:14;;;;;;;3.33;3.13;;;;;;;22.86;53.39;102953.06;5034575;28;20485;-44
2022/08/09 08:17:44;;;;;;;3.00;2.90;;;;;;;23.09;53.18;102966.84;5034202;28;20526;-46
2022/08/09 08:20:23;;;;;;;2.87;2.77;;;;;;;23.15;52.35;102953.16;5034435;28;20544;-46
2022/08/09 08:22:57;;;;;;;2.50;2.40;;;;;;;23.57;50.49;102964.22;5034196;28;20439;-49
2022/08/09 08:25:33;;;;;;;2.70;2.50;;;;;;;23.91;50.57;102968.16;5034650;28;20432;-44
2022/08/09 08:28:13;;;;;;;2.30;2.20;;;;;;;24.12;46.63;102965.78;5033917;28;20802;-47
2022/08/09 08:30:42;;;;;;;2.80;2.60;;;;;;;24.17;48.31;102956.88;5034356;28;20750;-44
2022/08/09 08:33:10;;;;;;;2.67;2.57;;;;;;;24.22;48.84;102963.28;5033137;28;20805;-46
2022/08/09 08:35:50;;;;;;;4.27;2.80;;;;;;;24.03;47.12;102964.41;5025285;28;20424;-46
2022/08/09 08:38:27;;;;;;;2.77;2.60;;;;;;;24.03;47.16;102958.13;5033870;28;20463;-46
2022/08/09 08:40:56;;;;;;;2.57;2.40;;;;;;;24.00;48.12;102955.88;5034233;28;20475;-47
2022/08/09 08:43:26;;;;;;;2.90;2.70;;;;;;;24.17;46.04;102957.72;5033913;28;20435;-44
2022/08/09 08:45:59;;;;;;;3.00;2.80;;;;;;;24.07;46.72;102962.06;5033786;28;20424;-45
2022/08/09 08:48:47;;;;;;;2.67;2.57;;;;;;;23.69;47.83;102968.66;5033254;28;20988;-45
2022/08/09 08:51:20;;;;;;;3.77;3.40;;;;;;;23.88;47.52;102961.28;5034037;28;20432;-43
2022/08/09 08:53:51;;;;;;;2.73;2.63;;;;;;;24.15;46.99;102970.75;5033732;28;20443;-42
2022/08/09 08:56:34;;;;;;;2.80;2.70;;;;;;;24.14;46.92;102973.69;5033622;28;20813;-43
2022/08/09 08:59:06;;;;;;;3.80;3.27;;;;;;;24.05;46.06;102975.06;5033384;28;21003;-44
2022/08/09 09:01:48;;;;;;;2.77;2.67;;;;;;;24.21;46.36;102979.91;5033790;28;20432;-42
2022/08/09 09:04:22;;;;;;;3.07;2.97;;;;;;;24.02;46.36;102984.53;5033544;28;20471;-46
2022/08/09 09:06:56;;;;;;;3.20;3.00;;;;;;;23.83;47.67;102985.69;5033370;28;20444;-42
2022/08/09 09:09:27;;;;;;;2.97;2.67;;;;;;;23.51;48.00;102986.91;5032993;28;20467;-44
2022/08/09 09:12:16;;;;;;;2.77;2.63;;;;;;;23.81;47.09;102978.75;5033518;28;20459;-45
2022/08/09 09:14:46;;;;;;;3.10;2.90;;;;;;;23.71;46.41;102976.63;5033692;28;20437;-43
2022/08/09 09:17:16;;;;;;;2.47;2.37;;;;;;;23.69;47.90;102973.28;5033443;28;20448;-44
2022/08/09 09:19:44;;;;;;;2.73;2.53;;;;;;;23.73;46.91;102970.94;5032936;28;20487;-44
2022/08/09 09:22:13;;;;;;;2.77;2.67;;;;;;;23.68;48.22;102968.91;5033343;28;20435;-44
2022/08/09 09:24:44;;;;;;;2.50;2.40;;;;;;;24.22;46.84;102976.13;5033438;28;20443;-46
2022/08/09 09:27:13;;;;;;;3.53;3.33;;;;;;;24.57;46.38;102968.81;5033179;28;20807;-44
2022/08/09 09:30:12;;;;;;;2.60;2.50;;;;;;;24.30;45.89;102969.47;5032833;28;20452;-44
2022/08/09 09:33:07;;;;;;;2.60;2.50;;;;;;;24.56;46.08;102963.56;5033112;28;20596;-44
2022/08/09 09:35:52;;;;;;;2.33;2.23;;;;;;;24.14;47.15;102965.53;5024220;28;20491;-44
2022/08/09 09:38:41;;;;;;;2.57;2.40;;;;;;;24.60;46.60;102959.31;5032487;28;20868;-44
2022/08/09 09:41:10;;;;;;;2.60;2.50;;;;;;;24.82;45.82;102963.13;5033039;28;20467;-45
2022/08/09 09:43:37;;;;;;;5.00;2.47;;;;;;;24.74;44.57;102956.13;5032657;28;20428;-45
2022/08/09 09:46:29;;;;;;;2.40;2.30;;;;;;;24.30;46.41;102959.41;5032709;28;20456;-47
2022/08/09 09:49:20;;;;;;;2.10;2.00;;;;;;;24.07;46.41;102953.88;5032235;28;20463;-44
2022/08/09 09:52:10;;;;;;;1.97;1.87;;;;;;;23.77;46.90;102963.97;5032467;28;20515;-44
2022/08/09 09:55:02;;;;;;;2.67;2.57;;;;;;;;;;5032916;28;20431;-44
2022/08/09 09:57:57;;;;;;;2.73;2.53;;;;;;;24.01;45.48;102963.00;5032088;28;20995;-44
2022/08/09 10:00:43;;;;;;;2.17;2.07;;;;;;;24.67;45.84;102955.41;5032484;28;21022;-41
2022/08/09 10:03:44;;;;;;;2.20;2.10;;;;;;;24.81;44.44;102949.75;5032162;28;20450;-45
2022/08/09 10:06:26;;;;;;;2.13;2.00;;;;;;;24.85;42.71;102948.22;5032483;28;20451;-44
2022/08/09 10:09:00;;;;;;;2.47;2.37;;;;;;;24.89;44.44;102947.47;5031975;28;20837;-44
2022/08/09 10:11:39;;;;;;;2.50;2.40;;;;;;;25.33;42.95;102940.50;5032511;28;20474;-49
2022/08/09 10:14:28;;;;;;;2.40;2.20;;;;;;;25.80;43.24;102946.66;5032534;28;20431;-46
2022/08/09 10:17:00;;;;;;;2.30;2.20;;;;;;;26.07;41.31;102946.88;5032238;28;20452;-43
2022/08/09 10:19:49;;;;;;;2.43;2.30;;;;;;;26.38;41.30;102946.31;5031481;28;20452;-43
2022/08/09 10:22:30;;;;;;;2.60;2.40;;;;;;;26.31;41.19;102937.47;5032204;28;20844;-45
2022/08/09 10:25:02;;;;;;;3.30;2.70;;;;;;;26.61;42.08;102937.13;5032289;28;20435;-44
2022/08/09 10:27:38;;;;;;;6.77;2.77;;;;;;;26.63;40.67;102935.78;5031523;28;20443;-46
2022/08/09 10:30:26;;;;;;;2.80;2.70;;;;;;;26.02;41.86;102936.66;5032027;28;20458;-45
2022/08/09 10:33:14;;;;;;;2.40;2.20;;;;;;;25.63;43.64;102932.94;5031629;28;20965;-46
2022/08/09 10:36:04;;;;;;;2.50;2.40;;;;;;;25.88;43.11;102932.59;5013240;28;20452;-43
2022/08/09 10:38:36;;;;;;;2.23;2.13;;;;;;;26.06;42.54;102929.63;5011646;28;20471;-46
2022/08/09 10:41:24;;;;;;;2.60;2.50;;;;;;;26.04;42.86;102929.06;5012365;28;20465;-44
2022/08/09 10:43:55;;;;;;;2.10;1.90;;;;;;;26.15;43.32;102927.34;5012473;28;20499;-45
2022/08/09 10:46:51;;;;;;;4.20;2.00;;;;;;;25.73;42.58;102930.41;5012304;28;20807;-45
2022/08/09 10:49:34;;;;;;;2.20;1.97;;;;;;;25.77;42.84;102930.75;5006313;28;20547;-43
2022/08/09 10:52:41;;;;;;;2.53;2.33;;;;;;;25.80;43.18;102928.38;5011969;28;20429;-45
2022/08/09 10:55:22;;;;;;;2.30;2.20;;;;;;;25.83;42.46;102929.78;5011493;28;20519;-45
2022/08/09 10:57:50;;;;;;;2.10;2.00;;;;;;;25.84;43.09;102929.53;5011436;28;20464;-45
2022/08/09 11:00:41;;;;;;;2.40;2.20;;;;;;;25.66;44.98;102926.16;5012084;28;20441;-49
2022/08/09 11:03:29;;;;;;;2.43;2.33;;;;;;;26.00;43.31;102927.06;5011668;28;20934;-45
2022/08/09 11:06:19;;;;;;;2.40;2.30;;;;;;;26.14;42.61;102921.00;5012046;28;20471;-47
2022/08/09 11:08:51;;;;;;;3.10;2.47;;;;;;;26.50;42.53;102925.19;5011407;28;20869;-45
2022/08/09 11:11:21;;;;;;;2.50;2.30;;;;;;;26.76;42.51;102929.94;5011944;28;20491;-42
2022/08/09 11:14:22;;;;;;;3.10;2.60;;;;;;;27.13;40.68;102932.13;5011786;28;20442;-44
2022/08/09 11:16:55;;;;;;;2.20;2.00;;;;;;;27.59;41.09;102939.84;5011833;28;20797;-44
2022/08/09 11:19:53;;;;;;;2.43;2.30;;;;;;;26.90;39.95;102934.03;5011173;28;20464;-44
2022/08/09 11:23:00;;;;;;;2.20;2.10;;;;;;;26.72;41.86;102927.97;5011374;28;20480;-44
2022/08/09 11:25:37;;;;;;;2.20;2.00;;;;;;;26.52;41.34;102934.00;5011915;28;20441;-44
2022/08/09 11:28:38;;;;;;;2.30;2.20;;;;;;;27.05;40.52;102932.56;5011364;28;20464;-46
2022/08/09 11:31:40;;;;;;;2.50;2.40;;;;;;;27.61;39.58;102931.34;5012066;28;20519;-46
2022/08/09 11:34:16;;;;;;;2.60;2.50;;;;;;;27.64;40.52;102930.84;5016402;28;20804;-44
2022/08/09 11:36:47;;;;;;;2.57;2.47;;;;;;;27.19;40.33;102922.88;5023034;28;20889;-42
2022/08/09 11:39:15;;;;;;;2.63;2.50;;;;;;;26.70;41.61;102922.75;5030751;28;20474;-42
2022/08/09 11:41:44;;;;;;;2.40;2.20;;;;;;;27.00;40.79;102916.88;5031522;28;20558;-46
2022/08/09 11:44:15;;;;;;;2.30;2.20;;;;;;;26.44;41.02;102917.97;5031199;28;20444;-43
2022/08/09 11:47:04;;;;;;;2.37;2.17;;;;;;;26.67;41.60;102917.78;5031317;28;20466;-44
2022/08/09 11:49:57;;;;;;;2.27;2.17;;;;;;;26.48;42.29;102919.13;5028111;28;20483;-44
2022/08/09 11:53:21;;;;;;;3.23;2.00;;;;;;;26.35;42.82;102922.19;5031296;28;20424;-43
2022/08/09 11:56:27;;;;;;;2.00;1.90;;;;;;;26.83;40.58;102916.94;5031333;28;20463;-44
2022/08/09 11:59:13;;;;;;;2.10;2.00;;;;;;;26.75;40.56;102917.34;5030871;28;20451;-42
2022/08/09 12:01:42;;;;;;;2.47;2.37;;;;;;;27.00;40.41;102916.88;5031140;28;20471;-44
2022/08/09 12:04:30;;;;;;;2.30;2.10;;;;;;;26.82;40.52;102917.22;5031229;28;20790;-46
2022/08/09 12:07:05;;;;;;;2.50;2.30;;;;;;;26.48;40.25;102918.31;5032633;28;20447;-46
2022/08/09 12:09:35;;;;;;;2.30;2.20;;;;;;;26.59;40.98;102914.63;5034165;28;20467;-44
2022/08/09 12:12:07;;;;;;;2.20;2.10;;;;;;;26.73;42.46;102913.22;5034525;28;20518;-46